Time;durP1;ratioP1;P1;durP2;ratioP2;P2;SDS_P1;SDS_P2;PMS_P1;PMS_P2;Temp;Humidity;BMP_temperature;BMP_pressure;BME280_temperature;BME280_humidity;BME280_pressure;Samples;Min_cycle;Max_cycle;Signal;HPM_P1;HPM_P2
2021/09/23 00:02:23;;;;;;;26.42;17.80;;;12.20;99.90;;;;;;5135283;27;20102;-66
2021/09/23 00:04:49;;;;;;;29.02;18.58;;;12.00;99.90;;;;;;5134489;27;20185;-66
2021/09/23 00:07:15;;;;;;;30.02;18.52;;;11.80;99.90;;;;;;5116803;27;20461;-65
2021/09/23 00:09:40;;;;;;;28.27;18.15;;;11.80;99.90;;;;;;5135627;27;20035;-66
2021/09/23 00:12:06;;;;;;;32.17;19.48;;;11.90;99.90;;;;;;5134597;27;20027;-66
2021/09/23 00:14:32;;;;;;;28.65;19.88;;;11.90;99.90;;;;;;5135918;27;20027;-66
2021/09/23 00:16:58;;;;;;;28.60;19.52;;;11.80;99.90;;;;;;5135009;27;20065;-66
2021/09/23 00:19:24;;;;;;;30.98;19.98;;;11.80;99.90;;;;;;5134726;27;20035;-66
2021/09/23 00:21:50;;;;;;;33.38;19.88;;;11.70;99.90;;;;;;5134641;27;20027;-66
2021/09/23 00:24:16;;;;;;;31.25;20.42;;;11.70;99.90;;;;;;5134663;27;20027;-66
2021/09/23 00:26:42;;;;;;;28.80;19.77;;;11.70;99.90;;;;;;5134624;27;20349;-66
2021/09/23 00:29:07;;;;;;;28.27;19.80;;;11.70;99.90;;;;;;5134939;27;20079;-66
2021/09/23 00:31:33;;;;;;;31.70;19.30;;;11.70;99.90;;;;;;5134546;27;20031;-66
2021/09/23 00:33:59;;;;;;;29.25;19.60;;;11.60;99.90;;;;;;5116323;27;20076;-65
2021/09/23 00:36:25;;;;;;;33.45;21.05;;;11.50;99.90;;;;;;5134147;27;20112;-66
2021/09/23 00:38:51;;;;;;;29.00;20.27;;;11.50;99.90;;;;;;5115690;27;20039;-66
2021/09/23 00:41:16;;;;;;;29.95;20.08;;;11.60;99.90;;;;;;5115708;27;20030;-65
2021/09/23 00:43:42;;;;;;;29.92;20.70;;;11.60;99.90;;;;;;5134125;27;20019;-65
2021/09/23 00:46:07;;;;;;;27.65;19.80;;;11.60;99.90;;;;;;5134813;27;20030;-66
2021/09/23 00:48:33;;;;;;;26.02;19.05;;;11.70;99.90;;;;;;5134931;27;20361;-66
2021/09/23 00:50:59;;;;;;;33.55;20.95;;;11.90;99.90;;;;;;5134922;27;20020;-66
2021/09/23 00:53:25;;;;;;;32.60;20.75;;;12.00;99.90;;;;;;5134786;27;20436;-66
2021/09/23 00:55:51;;;;;;;31.02;21.30;;;11.80;99.90;;;;;;5134065;27;20027;-66
2021/09/23 00:58:17;;;;;;;33.88;20.48;;;11.70;99.90;;;;;;5134599;27;20098;-66
2021/09/23 01:00:43;;;;;;;32.28;20.15;;;11.50;99.90;;;;;;5133483;27;20019;-66
2021/09/23 01:03:11;;;;;;;28.23;18.98;;;11.50;99.90;;;;;;5134106;27;20090;-66
2021/09/23 01:05:36;;;;;;;26.13;17.85;;;11.30;99.90;;;;;;5134220;27;20019;-66
2021/09/23 01:08:02;;;;;;;28.60;18.50;;;11.10;99.90;;;;;;5115739;27;20023;-65
2021/09/23 01:10:28;;;;;;;27.80;19.42;;;11.00;99.90;;;;;;5133914;27;20023;-65
2021/09/23 01:12:54;;;;;;;27.17;19.70;;;10.90;99.90;;;;;;5133925;27;20414;-65
2021/09/23 01:15:19;;;;;;;28.45;19.48;;;10.90;99.90;;;;;;5133517;27;20027;-66
2021/09/23 01:17:46;;;;;;;27.75;18.52;;;11.00;99.90;;;;;;5132920;27;20376;-65
2021/09/23 01:20:13;;;;;;;28.63;19.20;;;11.00;99.90;;;;;;5115010;27;20050;-65
2021/09/23 01:22:38;;;;;;;26.75;19.40;;;11.10;99.90;;;;;;5133318;27;20019;-65
2021/09/23 01:25:06;;;;;;;25.58;18.70;;;11.00;99.90;;;;;;5133969;27;20486;-65
2021/09/23 01:27:32;;;;;;;25.05;18.63;;;11.00;99.90;;;;;;5133796;27;20077;-65
2021/09/23 01:29:58;;;;;;;28.58;17.92;;;10.90;99.90;;;;;;5133716;27;20026;-65
2021/09/23 01:32:24;;;;;;;27.60;18.30;;;10.80;99.90;;;;;;5133672;27;20034;-66
2021/09/23 01:34:49;;;;;;;26.77;18.40;;;10.80;99.90;;;;;;5133748;27;20031;-66
2021/09/23 01:37:15;;;;;;;28.63;18.42;;;11.00;99.90;;;;;;5133061;27;20065;-66
2021/09/23 01:39:41;;;;;;;27.92;17.55;;;11.10;99.90;;;;;;5115525;27;20038;-66
2021/09/23 01:42:07;;;;;;;26.85;17.80;;;11.20;99.90;;;;;;5133836;27;20016;-66
2021/09/23 01:44:33;;;;;;;23.92;17.17;;;11.20;99.90;;;;;;5133780;27;20019;-66
2021/09/23 01:46:58;;;;;;;23.20;16.17;;;11.20;99.90;;;;;;5115356;27;20058;-66
2021/09/23 01:49:24;;;;;;;25.50;17.80;;;11.20;99.90;;;;;;5114879;28;20053;-66
2021/09/23 01:51:50;;;;;;;23.35;16.20;;;11.10;99.90;;;;;;5133268;27;20041;-66
2021/09/23 01:54:16;;;;;;;26.38;16.85;;;11.00;99.90;;;;;;5133146;27;20023;-66
2021/09/23 01:56:42;;;;;;;22.27;16.15;;;11.10;99.90;;;;;;5132955;27;20054;-66
2021/09/23 01:59:08;;;;;;;22.38;15.18;;;11.20;99.90;;;;;;5114609;28;20027;-66
2021/09/23 02:01:34;;;;;;;23.80;15.98;;;11.30;99.90;;;;;;5133404;28;20075;-66
2021/09/23 02:03:59;;;;;;;21.73;15.75;;;11.40;99.90;;;;;;5132964;28;20103;-66
2021/09/23 02:06:26;;;;;;;25.92;16.85;;;11.40;99.90;;;;;;5133365;28;20430;-66
2021/09/23 02:08:51;;;;;;;25.20;16.20;;;11.20;99.90;;;;;;5133068;28;20079;-66
2021/09/23 02:11:17;;;;;;;25.00;16.05;;;11.00;99.90;;;;;;5132918;28;20503;-66
2021/09/23 02:13:43;;;;;;;25.38;16.95;;;10.90;99.90;;;;;;5133074;28;20033;-66
2021/09/23 02:16:09;;;;;;;24.17;15.10;;;10.90;99.90;;;;;;5117602;28;20023;-66
2021/09/23 02:18:35;;;;;;;24.42;16.63;;;10.80;99.90;;;;;;5123453;28;20019;-67
2021/09/23 02:21:01;;;;;;;26.98;17.45;;;10.80;99.90;;;;;;5125196;28;20109;-67
2021/09/23 02:23:27;;;;;;;24.05;16.83;;;10.90;99.90;;;;;;5146955;28;20043;-66
2021/09/23 02:25:52;;;;;;;25.20;17.33;;;10.90;99.90;;;;;;5147512;28;20019;-66
2021/09/23 02:28:18;;;;;;;25.27;17.85;;;10.80;99.90;;;;;;5149005;27;20052;-66
2021/09/23 02:30:43;;;;;;;23.02;16.42;;;10.70;99.90;;;;;;5150522;27;20027;-66
2021/09/23 02:33:09;;;;;;;21.35;16.08;;;10.80;99.90;;;;;;5144839;27;20033;-66
2021/09/23 02:35:35;;;;;;;25.77;17.05;;;10.80;99.90;;;;;;5118915;27;20030;-66
2021/09/23 02:38:01;;;;;;;26.42;18.10;;;10.70;99.90;;;;;;5136601;27;20055;-65
2021/09/23 02:40:27;;;;;;;26.65;18.42;;;10.60;99.90;;;;;;5136880;27;20022;-65
2021/09/23 02:42:52;;;;;;;29.60;20.13;;;10.70;99.90;;;;;;5136811;27;20096;-65
2021/09/23 02:45:18;;;;;;;31.55;20.58;;;10.60;99.90;;;;;;5118446;27;20533;-65
2021/09/23 02:47:44;;;;;;;32.55;20.90;;;10.80;99.90;;;;;;5118466;27;20023;-65
2021/09/23 02:50:10;;;;;;;35.50;20.90;;;10.90;99.90;;;;;;5137010;27;20026;-65
2021/09/23 02:52:36;;;;;;;30.98;20.45;;;11.10;99.90;;;;;;5136567;27;20338;-66
2021/09/23 02:55:02;;;;;;;28.55;18.80;;;11.10;99.90;;;;;;5136498;27;20027;-66
2021/09/23 02:57:28;;;;;;;29.70;19.92;;;11.10;99.90;;;;;;5136522;27;20050;-66
2021/09/23 02:59:53;;;;;;;33.38;21.55;;;11.00;99.90;;;;;;5136623;27;20061;-65
2021/09/23 03:02:19;;;;;;;33.15;21.98;;;11.00;99.90;;;;;;5136475;27;20023;-65
2021/09/23 03:04:44;;;;;;;35.42;22.63;;;11.10;99.90;;;;;;5136720;27;20380;-65
2021/09/23 03:07:10;;;;;;;32.58;22.00;;;11.20;99.90;;;;;;5136593;27;20151;-66
2021/09/23 03:09:36;;;;;;;33.40;21.77;;;11.20;99.90;;;;;;5136585;27;20027;-66
2021/09/23 03:12:02;;;;;;;37.33;23.45;;;11.20;99.90;;;;;;5136497;27;20027;-66
2021/09/23 03:14:27;;;;;;;36.35;24.10;;;11.20;99.90;;;;;;5136494;27;20536;-66
2021/09/23 03:16:53;;;;;;;37.03;23.95;;;11.20;99.90;;;;;;5117652;27;20023;-66
2021/09/23 03:19:19;;;;;;;33.47;23.05;;;11.20;99.90;;;;;;5117313;27;20063;-66
2021/09/23 03:21:44;;;;;;;39.20;23.55;;;11.20;99.90;;;;;;5135924;27;20110;-66
2021/09/23 03:24:10;;;;;;;35.35;25.23;;;11.20;99.90;;;;;;5135912;27;20227;-65
2021/09/23 03:26:37;;;;;;;34.30;24.23;;;11.20;99.90;;;;;;5136739;27;20102;-66
2021/09/23 03:29:05;;;;;;;38.70;24.63;;;11.20;99.90;;;;;;5135756;27;20069;-66
2021/09/23 03:31:32;;;;;;;35.80;25.88;;;11.10;99.90;;;;;;5135892;27;20047;-66
2021/09/23 03:33:58;;;;;;;37.42;25.55;;;11.10;99.90;;;;;;5135912;27;20078;-66
2021/09/23 03:36:24;;;;;;;41.42;26.83;;;11.20;99.90;;;;;;5135801;27;20054;-66
2021/09/23 03:38:52;;;;;;;37.65;24.98;;;11.20;99.90;;;;;;5135154;27;20043;-66
2021/09/23 03:41:18;;;;;;;34.03;24.30;;;11.20;99.90;;;;;;5135736;27;20124;-66
2021/09/23 03:43:44;;;;;;;37.20;25.05;;;11.10;99.90;;;;;;5135670;27;20027;-66
2021/09/23 03:46:10;;;;;;;38.55;25.50;;;11.10;99.90;;;;;;5135796;27;20093;-66
2021/09/23 03:48:35;;;;;;;37.58;25.45;;;11.10;99.90;;;;;;5117627;27;20019;-66
2021/09/23 03:51:01;;;;;;;39.28;24.60;;;11.20;99.90;;;;;;5135769;27;20035;-66
2021/09/23 03:53:27;;;;;;;33.20;24.27;;;11.20;99.90;;;;;;5135412;27;20486;-66
2021/09/23 03:55:52;;;;;;;37.65;25.08;;;11.20;99.90;;;;;;5135689;27;20098;-66
2021/09/23 03:58:18;;;;;;;36.67;25.98;;;11.20;99.90;;;;;;5135246;27;20152;-66
2021/09/23 04:00:44;;;;;;;36.08;24.85;;;11.10;99.90;;;;;;5134918;27;20019;-66
2021/09/23 04:03:10;;;;;;;35.08;24.08;;;11.10;99.90;;;;;;5135366;27;20480;-66
2021/09/23 04:05:35;;;;;;;36.22;25.25;;;11.10;99.90;;;;;;5116541;27;20427;-66
2021/09/23 04:08:02;;;;;;;36.53;25.35;;;11.10;99.90;;;;;;5135271;27;20030;-66
2021/09/23 04:10:28;;;;;;;39.20;26.40;;;11.00;99.90;;;;;;5135531;27;20027;-66
2021/09/23 04:12:55;;;;;;;40.13;25.98;;;10.90;99.90;;;;;;5116897;27;20030;-66
2021/09/23 04:15:22;;;;;;;40.58;26.30;;;10.90;99.90;;;;;;5136033;27;20106;-66
2021/09/23 04:17:48;;;;;;;38.45;23.17;;;10.90;99.90;;;;;;5134975;27;20535;-66
2021/09/23 04:20:15;;;;;;;46.10;25.17;;;10.90;99.90;;;;;;5134849;27;20023;-66
2021/09/23 04:22:41;;;;;;;35.40;23.80;;;10.70;99.90;;;;;;5134975;27;20080;-66
2021/09/23 04:25:08;;;;;;;34.90;24.40;;;10.60;99.90;;;;;;5135197;27;20474;-65
2021/09/23 04:27:34;;;;;;;38.83;25.65;;;10.60;99.90;;;;;;5134849;27;20494;-66
2021/09/23 04:30:00;;;;;;;40.40;25.88;;;10.40;99.90;;;;;;5134750;27;20027;-66
2021/09/23 04:32:25;;;;;;;40.58;26.63;;;10.30;99.90;;;;;;5134788;27;20034;-66
2021/09/23 04:34:51;;;;;;;37.75;23.25;;;10.40;99.90;;;;;;5134878;27;20052;-66
2021/09/23 04:37:16;;;;;;;37.63;25.30;;;10.40;99.90;;;;;;5134334;27;20043;-66
2021/09/23 04:39:42;;;;;;;39.90;24.92;;;10.40;99.90;;;;;;5134522;27;20035;-66
2021/09/23 04:42:08;;;;;;;35.47;23.88;;;10.30;99.90;;;;;;5134351;27;20019;-66
2021/09/23 04:44:33;;;;;;;38.17;26.65;;;10.30;99.90;;;;;;5116424;27;20050;-66
2021/09/23 04:47:02;;;;;;;40.10;25.92;;;10.20;99.90;;;;;;5115896;27;20023;-66
2021/09/23 04:49:28;;;;;;;39.28;25.80;;;10.20;99.90;;;;;;5134637;27;20019;-65
2021/09/23 04:51:54;;;;;;;39.30;26.33;;;10.20;99.90;;;;;;5134124;27;20030;-65
2021/09/23 04:54:20;;;;;;;39.75;26.50;;;10.20;99.90;;;;;;5134370;27;20379;-65
2021/09/23 04:56:46;;;;;;;37.15;26.40;;;10.20;99.90;;;;;;5134436;27;20041;-66
2021/09/23 04:59:11;;;;;;;38.28;25.58;;;10.20;99.90;;;;;;5134258;27;20092;-66
2021/09/23 05:01:37;;;;;;;42.22;26.90;;;10.10;99.90;;;;;;5116051;27;20031;-65
2021/09/23 05:04:02;;;;;;;48.65;28.23;;;10.20;99.90;;;;;;5134252;27;20016;-66
2021/09/23 05:06:28;;;;;;;39.92;26.75;;;10.20;99.90;;;;;;5115771;27;20019;-66
2021/09/23 05:08:54;;;;;;;41.13;26.75;;;10.10;99.90;;;;;;5134098;27;20027;-65
2021/09/23 05:11:19;;;;;;;41.08;26.60;;;10.10;99.90;;;;;;5134519;27;20095;-66
2021/09/23 05:13:45;;;;;;;39.35;25.98;;;10.10;99.90;;;;;;5134715;27;20578;-66
2021/09/23 05:16:10;;;;;;;39.60;25.45;;;10.10;99.90;;;;;;5134118;27;20028;-66
2021/09/23 05:18:36;;;;;;;38.80;26.05;;;10.00;99.90;;;;;;5134197;27;20015;-66
2021/09/23 05:21:02;;;;;;;38.60;26.25;;;10.00;99.90;;;;;;5133890;27;20034;-65
2021/09/23 05:23:27;;;;;;;40.40;25.63;;;10.00;99.90;;;;;;5133973;27;20018;-65
2021/09/23 05:25:53;;;;;;;44.65;27.92;;;10.00;99.90;;;;;;5115237;27;20113;-65
2021/09/23 05:28:19;;;;;;;40.45;26.40;;;9.90;99.90;;;;;;5133662;27;20375;-65
2021/09/23 05:30:44;;;;;;;45.10;28.98;;;9.90;99.90;;;;;;5133362;27;20483;-65
2021/09/23 05:33:11;;;;;;;41.45;27.98;;;10.00;99.90;;;;;;5133644;27;20016;-66
2021/09/23 05:35:37;;;;;;;36.40;26.15;;;9.90;99.90;;;;;;5115415;27;20118;-65
2021/09/23 05:38:03;;;;;;;40.90;27.85;;;9.80;99.90;;;;;;5133614;27;20126;-65
2021/09/23 05:40:29;;;;;;;46.10;28.55;;;9.80;99.90;;;;;;5115055;27;20028;-65
2021/09/23 05:42:54;;;;;;;49.88;31.15;;;9.80;99.90;;;;;;5128878;27;20027;-65
2021/09/23 05:45:20;;;;;;;49.63;31.83;;;9.80;99.90;;;;;;5132868;27;20360;-65
2021/09/23 05:47:46;;;;;;;52.05;31.98;;;9.90;99.90;;;;;;5128627;27;20019;-65
2021/09/23 05:50:13;;;;;;;51.25;30.88;;;9.90;99.90;;;;;;5113882;27;20559;-65
2021/09/23 05:52:39;;;;;;;45.47;29.75;;;10.00;99.90;;;;;;5128053;27;20635;-65
2021/09/23 05:55:06;;;;;;;56.70;32.65;;;10.10;99.90;;;;;;5130332;27;20027;-65
2021/09/23 05:57:33;;;;;;;45.70;30.30;;;10.10;99.90;;;;;;5130097;27;20043;-65
2021/09/23 06:00:12;;;;;;;45.15;29.38;;;10.20;99.90;;;;;;5126559;28;20034;-65
2021/09/23 06:02:39;;;;;;;49.35;31.48;;;10.20;99.90;;;;;;5108873;28;20033;-66
2021/09/23 06:05:05;;;;;;;45.25;29.00;;;10.20;99.90;;;;;;5128559;28;20033;-66
2021/09/23 06:07:31;;;;;;;51.50;32.85;;;10.20;99.90;;;;;;5111077;28;20093;-65
2021/09/23 06:09:57;;;;;;;51.17;31.90;;;10.30;99.90;;;;;;5118888;28;20023;-66
2021/09/23 06:12:22;;;;;;;47.90;30.05;;;10.30;99.90;;;;;;5121302;28;20035;-66
2021/09/23 06:14:48;;;;;;;42.38;28.98;;;10.40;99.90;;;;;;5111726;27;20019;-66
2021/09/23 06:17:14;;;;;;;46.63;31.08;;;10.40;99.90;;;;;;5114957;27;20062;-66
2021/09/23 06:19:40;;;;;;;53.30;31.50;;;10.40;99.90;;;;;;5121072;28;20031;-66
2021/09/23 06:22:06;;;;;;;59.08;33.67;;;10.50;99.90;;;;;;5126986;28;20072;-65
2021/09/23 06:24:32;;;;;;;50.58;31.98;;;10.60;99.90;;;;;;5126850;28;20074;-66
2021/09/23 06:26:58;;;;;;;52.65;32.38;;;10.70;99.90;;;;;;5126773;28;20054;-66
2021/09/23 06:29:23;;;;;;;42.65;30.52;;;10.80;99.90;;;;;;5125650;28;20578;-66
2021/09/23 06:31:49;;;;;;;48.05;31.35;;;10.90;99.90;;;;;;5115501;27;20698;-66
2021/09/23 06:34:15;;;;;;;48.00;31.83;;;11.00;99.90;;;;;;5101929;28;20043;-66
2021/09/23 06:36:40;;;;;;;54.30;33.70;;;11.10;99.90;;;;;;5123336;28;20031;-66
2021/09/23 06:39:06;;;;;;;56.70;34.83;;;11.10;99.90;;;;;;5120911;28;20058;-66
2021/09/23 06:41:32;;;;;;;52.15;33.30;;;11.30;99.90;;;;;;5123517;27;20080;-66
2021/09/23 06:44:02;;;;;;;49.70;31.73;;;11.40;99.90;;;;;;5096006;28;20632;-66
2021/09/23 06:46:27;;;;;;;50.70;33.33;;;11.60;99.90;;;;;;5098092;28;20038;-66
2021/09/23 06:48:53;;;;;;;52.97;33.88;;;11.70;99.90;;;;;;5116399;28;20185;-66
2021/09/23 06:51:20;;;;;;;54.38;33.10;;;11.70;99.90;;;;;;5117106;28;20474;-65
2021/09/23 06:53:47;;;;;;;51.15;33.92;;;11.80;99.90;;;;;;5071089;28;20107;-65
2021/09/23 06:56:13;;;;;;;51.20;34.60;;;12.00;99.90;;;;;;5123726;28;20081;-65
2021/09/23 06:58:39;;;;;;;54.00;32.75;;;12.20;99.90;;;;;;5117157;28;20027;-66
2021/09/23 07:01:04;;;;;;;53.90;33.42;;;12.20;99.90;;;;;;5114051;28;20641;-65
2021/09/23 07:03:30;;;;;;;47.15;32.03;;;12.40;99.90;;;;;;5087750;27;20411;-66
2021/09/23 07:05:55;;;;;;;47.63;32.08;;;12.50;99.90;;;;;;5098982;28;20127;-66
2021/09/23 07:08:21;;;;;;;46.50;30.73;;;12.50;99.90;;;;;;5113730;28;20018;-66
2021/09/23 07:10:49;;;;;;;46.75;31.77;;;12.60;99.90;;;;;;5115016;28;20039;-65
2021/09/23 07:13:15;;;;;;;45.65;31.27;;;12.60;99.90;;;;;;5082863;27;20106;-66
2021/09/23 07:15:41;;;;;;;47.50;29.80;;;12.80;99.90;;;;;;5115144;27;20051;-66
2021/09/23 07:18:07;;;;;;;49.40;30.73;;;13.00;99.90;;;;;;5123251;27;20038;-66
2021/09/23 07:20:32;;;;;;;50.83;30.83;;;13.20;99.90;;;;;;5110750;27;20031;-66
2021/09/23 07:22:58;;;;;;;43.53;28.90;;;13.20;99.90;;;;;;5113389;27;20027;-67
2021/09/23 07:25:24;;;;;;;44.85;28.45;;;13.30;99.90;;;;;;5112867;27;20011;-66
2021/09/23 07:27:54;;;;;;;45.70;30.75;;;13.40;99.90;;;;;;5115782;27;20203;-66
2021/09/23 07:30:22;;;;;;;47.15;30.42;;;13.40;99.90;;;;;;5116403;27;20777;-66
2021/09/23 07:32:48;;;;;;;50.03;30.15;;;13.50;99.90;;;;;;5119466;27;20129;-66
2021/09/23 07:35:13;;;;;;;53.70;30.67;;;13.70;99.90;;;;;;5118735;27;20037;-66
2021/09/23 07:37:40;;;;;;;48.20;31.75;;;13.90;99.90;;;;;;5123884;27;20521;-67
2021/09/23 07:40:08;;;;;;;45.05;29.60;;;14.10;99.90;;;;;;5103619;27;20016;-67
2021/09/23 07:42:34;;;;;;;46.45;30.23;;;14.20;99.90;;;;;;5121124;27;21335;-67
2021/09/23 07:45:01;;;;;;;44.85;30.67;;;14.30;99.90;;;;;;5123629;27;20054;-67
2021/09/23 07:47:26;;;;;;;41.30;29.05;;;14.50;99.90;;;;;;5125150;27;20027;-66
2021/09/23 07:49:52;;;;;;;40.15;28.85;;;14.80;99.90;;;;;;5127495;27;20031;-66
2021/09/23 07:52:18;;;;;;;41.38;26.52;;;15.40;99.90;;;;;;5107269;27;20019;-66
2021/09/23 07:54:44;;;;;;;37.42;25.23;;;16.20;99.90;;;;;;5129819;27;20107;-67
2021/09/23 07:57:11;;;;;;;35.58;25.77;;;16.70;99.90;;;;;;5117985;27;20060;-67
2021/09/23 07:59:37;;;;;;;42.90;27.08;;;17.20;99.90;;;;;;5120944;27;20541;-67
2021/09/23 08:02:04;;;;;;;33.72;24.88;;;17.50;99.90;;;;;;5108031;27;20171;-67
2021/09/23 08:04:29;;;;;;;40.65;25.63;;;17.10;99.90;;;;;;5125437;27;20027;-68
2021/09/23 08:06:55;;;;;;;37.90;26.30;;;17.20;99.90;;;;;;5126691;27;20337;-67
2021/09/23 08:09:20;;;;;;;34.00;25.80;;;17.20;99.90;;;;;;5108489;27;20031;-67
2021/09/23 08:11:46;;;;;;;34.33;23.52;;;17.30;99.90;;;;;;5124387;27;20053;-67
2021/09/23 08:14:13;;;;;;;31.60;22.92;;;17.50;99.90;;;;;;5122214;27;20031;-68
2021/09/23 08:16:39;;;;;;;33.80;24.58;;;18.10;99.90;;;;;;5117837;27;20720;-67
2021/09/23 08:19:04;;;;;;;36.05;24.20;;;18.00;99.90;;;;;;5121124;27;20041;-67
2021/09/23 08:21:30;;;;;;;35.67;25.15;;;17.90;99.90;;;;;;5132372;27;20033;-67
2021/09/23 08:23:55;;;;;;;37.30;24.80;;;17.80;99.90;;;;;;5125853;27;20023;-67
2021/09/23 08:26:23;;;;;;;33.65;25.50;;;17.30;99.90;;;;;;5125942;27;20027;-66
2021/09/23 08:28:50;;;;;;;35.70;25.23;;;17.10;99.90;;;;;;5106919;27;20061;-67
2021/09/23 08:31:17;;;;;;;31.98;24.52;;;17.60;99.90;;;;;;5128883;27;20050;-68
2021/09/23 08:33:43;;;;;;;31.17;23.58;;;18.20;99.90;;;;;;5129854;27;20687;-69
2021/09/23 08:36:09;;;;;;;37.75;24.48;;;19.00;99.90;;;;;;5110587;27;20821;-68
2021/09/23 08:38:35;;;;;;;31.80;23.35;;;19.10;99.90;;;;;;5121468;27;20047;-69
2021/09/23 08:41:01;;;;;;;30.50;23.50;;;19.40;99.90;;;;;;5110068;27;20027;-70
2021/09/23 08:43:27;;;;;;;30.90;23.00;;;19.50;99.90;;;;;;5103233;27;20180;-68
2021/09/23 08:45:56;;;;;;;31.05;23.17;;;19.10;99.90;;;;;;5128039;27;20586;-68
2021/09/23 08:48:22;;;;;;;31.38;23.13;;;19.00;99.90;;;;;;5118363;27;20095;-68
2021/09/23 08:50:48;;;;;;;30.75;23.33;;;19.20;99.90;;;;;;5128698;27;20401;-68
2021/09/23 08:53:14;;;;;;;30.80;22.65;;;19.30;99.90;;;;;;5109593;27;20130;-69
2021/09/23 08:55:40;;;;;;;30.58;22.55;;;19.60;99.90;;;;;;5127122;27;20144;-69
2021/09/23 08:58:06;;;;;;;33.20;23.23;;;19.70;99.90;;;;;;5120037;27;20102;-69
2021/09/23 09:00:37;;;;;;;32.47;23.65;;;20.20;99.90;;;;;;5123227;27;20758;-67
2021/09/23 09:03:03;;;;;;;34.03;23.98;;;20.00;99.90;;;;;;5129796;27;20075;-69
2021/09/23 09:05:30;;;;;;;33.67;23.40;;;19.90;99.90;;;;;;5129344;27;20023;-68
2021/09/23 09:08:06;;;;;;;33.40;24.08;;;19.70;99.90;;;;;;5119787;27;20031;-69
2021/09/23 09:10:33;;;;;;;32.13;21.17;;;19.50;99.90;;;;;;5104163;27;20032;-70
2021/09/23 09:13:05;;;;;;;29.27;21.17;;;19.80;99.90;;;;;;5124416;27;20027;-69
2021/09/23 09:15:38;;;;;;;34.38;23.35;;;19.90;99.90;;;;;;5126520;27;20517;-67
2021/09/23 09:18:18;;;;;;;31.95;22.33;;;19.70;99.90;;;;;;5123532;27;20035;-70
2021/09/23 09:20:56;;;;;;;28.02;20.23;;;19.70;99.90;;;;;;5104446;27;20069;-70
2021/09/23 09:23:24;;;;;;;30.85;21.88;;;19.90;99.90;;;;;;5125533;27;20059;-69
2021/09/23 09:25:49;;;;;;;27.08;19.60;;;19.70;99.90;;;;;;5107563;27;20396;-69
2021/09/23 09:28:19;;;;;;;26.45;19.38;;;19.50;99.90;;;;;;5119952;27;20031;-69
2021/09/23 09:30:52;;;;;;;25.80;17.10;;;19.60;99.90;;;;;;5104667;27;20142;-69
2021/09/23 09:33:18;;;;;;;;;;;19.80;99.90;;;;;;5128455;27;20019;-69
2021/09/23 09:35:43;;;;;;;19.88;13.95;;;20.20;99.90;;;;;;5106944;27;19908;-70
2021/09/23 09:38:09;;;;;;;18.15;13.40;;;21.30;99.90;;;;;;5110351;27;20043;-69
2021/09/23 09:40:38;;;;;;;21.88;13.98;;;21.30;99.90;;;;;;5103107;27;20027;-70
2021/09/23 09:43:08;;;;;;;18.60;13.30;;;21.60;99.90;;;;;;5108638;27;20444;-70
2021/09/23 09:45:34;;;;;;;18.52;13.38;;;22.00;99.90;;;;;;5125406;27;20023;-69
2021/09/23 09:48:00;;;;;;;16.85;13.18;;;22.00;99.90;;;;;;5103916;27;20114;-70
2021/09/23 09:50:29;;;;;;;18.23;14.20;;;22.20;99.90;;;;;;5128426;27;20104;-70
2021/09/23 09:52:58;;;;;;;20.48;14.30;;;21.80;99.90;;;;;;5120689;28;20059;-69
2021/09/23 09:55:26;;;;;;;21.63;14.25;;;21.40;99.90;;;;;;5124066;27;20111;-70
2021/09/23 09:57:52;;;;;;;18.60;13.70;;;22.00;99.90;;;;;;5081721;27;20027;-71
2021/09/23 10:00:19;;;;;;;23.52;13.40;;;22.30;99.90;;;;;;5106467;28;20027;-71
2021/09/23 10:02:45;;;;;;;16.73;12.75;;;22.10;99.90;;;;;;5106616;28;20027;-72
2021/09/23 10:05:12;;;;;;;17.02;12.07;;;22.20;99.90;;;;;;5127533;28;20483;-71
2021/09/23 10:07:49;;;;;;;17.38;12.25;;;22.30;99.90;;;;;;5093816;27;20102;-71
2021/09/23 10:10:17;;;;;;;16.60;12.70;;;22.40;99.90;;;;;;5126834;28;20037;-71
2021/09/23 10:12:45;;;;;;;18.80;12.05;;;23.10;99.90;;;;;;5118615;28;20110;-71
2021/09/23 10:15:14;;;;;;;14.52;11.65;;;23.40;99.90;;;;;;5102980;28;20513;-71
2021/09/23 10:17:46;;;;;;;14.07;11.85;;;23.80;99.90;;;;;;5103553;27;20140;-72
2021/09/23 10:20:14;;;;;;;13.70;11.45;;;23.80;99.90;;;;;;5106463;28;20066;-72
2021/09/23 10:22:40;;;;;;;14.77;12.05;;;23.80;99.90;;;;;;5101694;28;20492;-69
2021/09/23 10:25:09;;;;;;;16.90;11.90;;;23.50;99.90;;;;;;5091192;28;20039;-70
2021/09/23 10:30:22;;;;;;;13.30;8.65;;;23.40;99.90;;;;;;5113786;27;20042;-70
2021/09/23 10:32:48;;;;;;;13.50;7.47;;;23.80;99.90;;;;;;5101391;28;20414;-70
2021/09/23 10:35:15;;;;;;;10.60;7.32;;;23.90;99.90;;;;;;5120798;28;20031;-71
2021/09/23 10:37:41;;;;;;;11.55;5.90;;;24.30;99.90;;;;;;5095543;27;20543;-72
2021/09/23 10:40:09;;;;;;;11.23;5.28;;;25.10;98.40;;;;;;5118959;27;20092;-72
2021/09/23 10:42:36;;;;;;;6.15;5.20;;;25.50;97.30;;;;;;5124549;28;20027;-70
2021/09/23 10:45:05;;;;;;;12.50;5.25;;;25.50;96.10;;;;;;5126431;28;20050;-71
2021/09/23 10:47:36;;;;;;;11.75;5.90;;;25.30;96.30;;;;;;5100019;27;20019;-70
2021/09/23 10:50:05;;;;;;;10.95;6.65;;;25.50;95.80;;;;;;5128530;27;20101;-70
2021/09/23 10:52:34;;;;;;;10.95;6.30;;;25.00;96.60;;;;;;5110147;27;20100;-71
2021/09/23 10:55:02;;;;;;;11.90;6.45;;;24.70;97.20;;;;;;5128165;27;20115;-70
2021/09/23 10:57:29;;;;;;;13.65;6.32;;;24.40;98.30;;;;;;5112788;27;20031;-71
2021/09/23 10:59:56;;;;;;;15.07;7.63;;;25.30;96.70;;;;;;5101827;27;20019;-70
2021/09/23 11:02:24;;;;;;;10.88;7.45;;;24.80;96.60;;;;;;5126297;27;20023;-70
2021/09/23 11:04:55;;;;;;;11.93;8.13;;;24.30;97.40;;;;;;5110979;27;20019;-70
2021/09/23 11:07:22;;;;;;;10.18;7.55;;;24.80;96.70;;;;;;5114443;27;20027;-69
2021/09/23 11:10:10;;;;;;;9.43;7.40;;;24.80;96.50;;;;;;5109262;27;20420;-69
2021/09/23 11:12:39;;;;;;;9.32;6.95;;;25.70;95.60;;;;;;5097371;27;20063;-69
2021/09/23 11:15:06;;;;;;;9.00;7.15;;;26.10;94.80;;;;;;5130321;27;20027;-70
